sensor_id;sensor_type;location;lat;lon;timestamp;P1;durP1;ratioP1;P2;durP2;ratioP2
22034;SDS011;11181;51.002;4.356;2023-07-20T00:00:09;6.13;;;2.40;;
22034;SDS011;11181;51.002;4.356;2023-07-20T00:02:37;3.97;;;2.47;;
22034;SDS011;11181;51.002;4.356;2023-07-20T00:05:04;4.47;;;2.27;;
22034;SDS011;11181;51.002;4.356;2023-07-20T00:07:32;4.90;;;2.23;;
22034;SDS011;11181;51.002;4.356;2023-07-20T00:09:59;2.93;;;2.23;;
22034;SDS011;11181;51.002;4.356;2023-07-20T00:12:27;10.97;;;2.70;;
22034;SDS011;11181;51.002;4.356;2023-07-20T00:14:54;4.43;;;2.33;;
22034;SDS011;11181;51.002;4.356;2023-07-20T00:17:21;3.33;;;1.93;;
22034;SDS011;11181;51.002;4.356;2023-07-20T00:19:47;5.07;;;2.20;;
22034;SDS011;11181;51.002;4.356;2023-07-20T00:22:14;6.50;;;3.10;;
22034;SDS011;11181;51.002;4.356;2023-07-20T00:24:41;3.97;;;2.50;;
22034;SDS011;11181;51.002;4.356;2023-07-20T00:27:08;3.97;;;2.60;;
22034;SDS011;11181;51.002;4.356;2023-07-20T00:29:36;6.40;;;2.77;;
22034;SDS011;11181;51.002;4.356;2023-07-20T00:32:03;4.10;;;2.50;;
22034;SDS011;11181;51.002;4.356;2023-07-20T00:34:31;5.33;;;2.87;;
22034;SDS011;11181;51.002;4.356;2023-07-20T00:36:58;6.40;;;2.93;;
22034;SDS011;11181;51.002;4.356;2023-07-20T00:39:25;5.30;;;3.40;;
22034;SDS011;11181;51.002;4.356;2023-07-20T00:41:52;6.90;;;2.80;;
22034;SDS011;11181;51.002;4.356;2023-07-20T00:44:19;6.57;;;2.80;;
22034;SDS011;11181;51.002;4.356;2023-07-20T00:46:47;5.40;;;2.80;;
22034;SDS011;11181;51.002;4.356;2023-07-20T00:49:14;6.47;;;3.40;;
22034;SDS011;11181;51.002;4.356;2023-07-20T00:51:41;9.23;;;3.10;;
22034;SDS011;11181;51.002;4.356;2023-07-20T00:54:08;3.60;;;2.90;;
22034;SDS011;11181;51.002;4.356;2023-07-20T00:56:35;7.23;;;4.20;;
22034;SDS011;11181;51.002;4.356;2023-07-20T00:59:02;7.73;;;3.40;;
22034;SDS011;11181;51.002;4.356;2023-07-20T01:01:29;6.70;;;3.23;;
22034;SDS011;11181;51.002;4.356;2023-07-20T01:03:58;7.70;;;3.63;;
22034;SDS011;11181;51.002;4.356;2023-07-20T01:06:26;7.23;;;3.33;;
22034;SDS011;11181;51.002;4.356;2023-07-20T01:09:02;7.17;;;3.30;;
22034;SDS011;11181;51.002;4.356;2023-07-20T01:11:36;9.77;;;3.40;;
22034;SDS011;11181;51.002;4.356;2023-07-20T01:14:07;10.47;;;4.50;;
22034;SDS011;11181;51.002;4.356;2023-07-20T01:16:34;11.63;;;4.37;;
22034;SDS011;11181;51.002;4.356;2023-07-20T01:19:02;8.70;;;3.60;;
22034;SDS011;11181;51.002;4.356;2023-07-20T01:21:33;9.20;;;4.00;;
22034;SDS011;11181;51.002;4.356;2023-07-20T01:24:17;7.70;;;4.03;;
22034;SDS011;11181;51.002;4.356;2023-07-20T01:27:18;9.73;;;3.97;;
22034;SDS011;11181;51.002;4.356;2023-07-20T01:30:10;9.13;;;4.30;;
22034;SDS011;11181;51.002;4.356;2023-07-20T01:32:47;7.80;;;4.07;;
22034;SDS011;11181;51.002;4.356;2023-07-20T01:35:15;12.60;;;4.17;;
22034;SDS011;11181;51.002;4.356;2023-07-20T01:37:44;10.93;;;3.97;;
22034;SDS011;11181;51.002;4.356;2023-07-20T01:40:13;10.60;;;4.40;;
22034;SDS011;11181;51.002;4.356;2023-07-20T01:42:45;9.07;;;3.90;;
22034;SDS011;11181;51.002;4.356;2023-07-20T01:45:13;9.10;;;4.10;;
22034;SDS011;11181;51.002;4.356;2023-07-20T01:47:40;9.33;;;4.40;;
22034;SDS011;11181;51.002;4.356;2023-07-20T01:50:09;12.07;;;3.50;;
22034;SDS011;11181;51.002;4.356;2023-07-20T01:52:36;7.93;;;4.00;;
22034;SDS011;11181;51.002;4.356;2023-07-20T01:55:03;11.40;;;4.50;;
22034;SDS011;11181;51.002;4.356;2023-07-20T01:57:31;8.13;;;4.17;;
22034;SDS011;11181;51.002;4.356;2023-07-20T01:59:58;7.30;;;4.37;;
22034;SDS011;11181;51.002;4.356;2023-07-20T02:02:26;9.80;;;4.30;;
22034;SDS011;11181;51.002;4.356;2023-07-20T02:04:53;7.03;;;4.40;;
22034;SDS011;11181;51.002;4.356;2023-07-20T02:07:22;10.27;;;5.27;;
22034;SDS011;11181;51.002;4.356;2023-07-20T02:09:48;10.00;;;4.07;;
22034;SDS011;11181;51.002;4.356;2023-07-20T02:12:15;11.37;;;4.70;;
22034;SDS011;11181;51.002;4.356;2023-07-20T02:14:42;7.50;;;4.43;;
22034;SDS011;11181;51.002;4.356;2023-07-20T02:17:09;12.53;;;5.27;;
22034;SDS011;11181;51.002;4.356;2023-07-20T02:19:37;12.67;;;4.80;;
22034;SDS011;11181;51.002;4.356;2023-07-20T02:22:04;13.27;;;5.60;;
22034;SDS011;11181;51.002;4.356;2023-07-20T02:24:32;12.50;;;5.10;;
22034;SDS011;11181;51.002;4.356;2023-07-20T02:26:59;11.63;;;4.80;;
22034;SDS011;11181;51.002;4.356;2023-07-20T02:29:26;12.30;;;5.17;;
22034;SDS011;11181;51.002;4.356;2023-07-20T02:31:53;9.17;;;4.93;;
22034;SDS011;11181;51.002;4.356;2023-07-20T02:34:20;10.63;;;5.60;;
22034;SDS011;11181;51.002;4.356;2023-07-20T02:36:47;9.87;;;6.03;;
22034;SDS011;11181;51.002;4.356;2023-07-20T02:39:14;12.97;;;5.77;;
22034;SDS011;11181;51.002;4.356;2023-07-20T02:41:42;10.03;;;5.00;;
22034;SDS011;11181;51.002;4.356;2023-07-20T02:44:09;6.47;;;4.63;;
22034;SDS011;11181;51.002;4.356;2023-07-20T02:46:36;7.17;;;4.40;;
22034;SDS011;11181;51.002;4.356;2023-07-20T02:49:03;8.07;;;5.27;;
22034;SDS011;11181;51.002;4.356;2023-07-20T02:51:30;9.90;;;5.43;;
22034;SDS011;11181;51.002;4.356;2023-07-20T02:53:57;8.43;;;5.30;;
22034;SDS011;11181;51.002;4.356;2023-07-20T02:56:24;10.60;;;4.67;;
22034;SDS011;11181;51.002;4.356;2023-07-20T02:58:52;14.03;;;5.57;;
22034;SDS011;11181;51.002;4.356;2023-07-20T03:01:19;7.97;;;5.00;;
22034;SDS011;11181;51.002;4.356;2023-07-20T03:03:47;15.30;;;5.40;;
22034;SDS011;11181;51.002;4.356;2023-07-20T03:06:15;10.13;;;5.37;;
22034;SDS011;11181;51.002;4.356;2023-07-20T03:08:42;13.80;;;7.10;;
22034;SDS011;11181;51.002;4.356;2023-07-20T03:11:12;8.00;;;5.53;;
22034;SDS011;11181;51.002;4.356;2023-07-20T03:13:40;9.77;;;5.17;;
22034;SDS011;11181;51.002;4.356;2023-07-20T03:16:08;10.33;;;5.37;;
22034;SDS011;11181;51.002;4.356;2023-07-20T03:18:37;15.00;;;5.07;;
22034;SDS011;11181;51.002;4.356;2023-07-20T03:21:04;9.87;;;5.20;;
22034;SDS011;11181;51.002;4.356;2023-07-20T03:23:32;10.13;;;5.90;;
22034;SDS011;11181;51.002;4.356;2023-07-20T03:25:59;8.20;;;4.87;;
22034;SDS011;11181;51.002;4.356;2023-07-20T03:28:26;11.27;;;4.97;;
22034;SDS011;11181;51.002;4.356;2023-07-20T03:30:53;12.93;;;5.90;;
22034;SDS011;11181;51.002;4.356;2023-07-20T03:33:22;7.57;;;4.90;;
22034;SDS011;11181;51.002;4.356;2023-07-20T03:35:51;14.93;;;5.80;;
22034;SDS011;11181;51.002;4.356;2023-07-20T03:38:18;7.90;;;5.17;;
22034;SDS011;11181;51.002;4.356;2023-07-20T03:40:51;21.53;;;7.83;;
22034;SDS011;11181;51.002;4.356;2023-07-20T03:43:18;10.63;;;5.90;;
22034;SDS011;11181;51.002;4.356;2023-07-20T03:45:45;10.67;;;6.93;;
22034;SDS011;11181;51.002;4.356;2023-07-20T03:48:12;10.57;;;7.60;;
22034;SDS011;11181;51.002;4.356;2023-07-20T03:50:41;13.37;;;6.37;;
22034;SDS011;11181;51.002;4.356;2023-07-20T03:53:08;12.87;;;6.30;;
22034;SDS011;11181;51.002;4.356;2023-07-20T03:55:34;12.07;;;6.07;;
22034;SDS011;11181;51.002;4.356;2023-07-20T03:58:01;12.83;;;7.17;;
22034;SDS011;11181;51.002;4.356;2023-07-20T04:00:28;13.23;;;6.43;;
22034;SDS011;11181;51.002;4.356;2023-07-20T04:02:55;14.60;;;6.87;;
22034;SDS011;11181;51.002;4.356;2023-07-20T04:05:22;9.30;;;6.67;;
22034;SDS011;11181;51.002;4.356;2023-07-20T04:07:50;10.80;;;7.13;;
22034;SDS011;11181;51.002;4.356;2023-07-20T04:10:17;13.57;;;7.23;;
22034;SDS011;11181;51.002;4.356;2023-07-20T04:12:44;7.53;;;6.23;;
22034;SDS011;11181;51.002;4.356;2023-07-20T04:15:12;14.33;;;6.40;;
22034;SDS011;11181;51.002;4.356;2023-07-20T04:17:39;10.17;;;6.83;;
22034;SDS011;11181;51.002;4.356;2023-07-20T04:20:07;13.77;;;7.93;;
22034;SDS011;11181;51.002;4.356;2023-07-20T04:22:34;10.00;;;6.90;;
22034;SDS011;11181;51.002;4.356;2023-07-20T04:25:03;12.70;;;7.87;;
22034;SDS011;11181;51.002;4.356;2023-07-20T04:27:30;12.97;;;8.17;;
22034;SDS011;11181;51.002;4.356;2023-07-20T04:29:57;10.97;;;7.67;;
22034;SDS011;11181;51.002;4.356;2023-07-20T04:32:25;14.90;;;7.90;;
22034;SDS011;11181;51.002;4.356;2023-07-20T04:34:52;14.60;;;7.67;;
22034;SDS011;11181;51.002;4.356;2023-07-20T04:37:19;17.73;;;7.10;;
22034;SDS011;11181;51.002;4.356;2023-07-20T04:39:45;14.00;;;7.93;;
22034;SDS011;11181;51.002;4.356;2023-07-20T04:42:14;12.27;;;7.17;;
22034;SDS011;11181;51.002;4.356;2023-07-20T04:44:41;11.13;;;8.33;;
22034;SDS011;11181;51.002;4.356;2023-07-20T04:47:08;11.93;;;7.80;;
22034;SDS011;11181;51.002;4.356;2023-07-20T04:49:35;14.37;;;7.53;;
22034;SDS011;11181;51.002;4.356;2023-07-20T04:52:02;15.90;;;8.30;;
22034;SDS011;11181;51.002;4.356;2023-07-20T04:54:29;13.37;;;8.53;;
22034;SDS011;11181;51.002;4.356;2023-07-20T04:56:56;10.53;;;6.73;;
22034;SDS011;11181;51.002;4.356;2023-07-20T04:59:25;11.03;;;7.40;;
22034;SDS011;11181;51.002;4.356;2023-07-20T05:01:51;12.10;;;7.63;;
22034;SDS011;11181;51.002;4.356;2023-07-20T05:04:18;12.07;;;9.13;;
22034;SDS011;11181;51.002;4.356;2023-07-20T05:06:45;12.03;;;7.97;;
22034;SDS011;11181;51.002;4.356;2023-07-20T05:09:12;11.30;;;7.20;;
22034;SDS011;11181;51.002;4.356;2023-07-20T05:11:39;14.80;;;7.87;;
22034;SDS011;11181;51.002;4.356;2023-07-20T05:14:06;13.60;;;7.90;;
22034;SDS011;11181;51.002;4.356;2023-07-20T05:16:34;10.03;;;7.27;;
22034;SDS011;11181;51.002;4.356;2023-07-20T05:19:01;13.00;;;8.80;;
22034;SDS011;11181;51.002;4.356;2023-07-20T05:21:28;12.07;;;8.10;;
22034;SDS011;11181;51.002;4.356;2023-07-20T05:23:55;14.63;;;7.60;;
22034;SDS011;11181;51.002;4.356;2023-07-20T05:26:22;14.07;;;8.77;;
22034;SDS011;11181;51.002;4.356;2023-07-20T05:28:49;11.30;;;7.20;;
22034;SDS011;11181;51.002;4.356;2023-07-20T05:31:16;12.60;;;7.57;;
22034;SDS011;11181;51.002;4.356;2023-07-20T05:33:44;12.67;;;7.60;;
22034;SDS011;11181;51.002;4.356;2023-07-20T05:36:11;10.70;;;7.60;;
22034;SDS011;11181;51.002;4.356;2023-07-20T05:38:38;13.10;;;8.00;;
22034;SDS011;11181;51.002;4.356;2023-07-20T05:41:04;11.67;;;7.67;;
22034;SDS011;11181;51.002;4.356;2023-07-20T05:43:35;10.40;;;6.70;;
22034;SDS011;11181;51.002;4.356;2023-07-20T05:46:02;12.17;;;7.73;;
22034;SDS011;11181;51.002;4.356;2023-07-20T05:48:30;10.80;;;7.60;;
22034;SDS011;11181;51.002;4.356;2023-07-20T05:50:58;7.97;;;6.60;;
22034;SDS011;11181;51.002;4.356;2023-07-20T05:53:25;11.57;;;6.90;;
22034;SDS011;11181;51.002;4.356;2023-07-20T05:55:52;12.37;;;6.63;;
22034;SDS011;11181;51.002;4.356;2023-07-20T05:58:19;9.93;;;7.70;;
22034;SDS011;11181;51.002;4.356;2023-07-20T06:00:47;10.60;;;6.83;;
22034;SDS011;11181;51.002;4.356;2023-07-20T06:03:14;9.80;;;6.53;;
22034;SDS011;11181;51.002;4.356;2023-07-20T06:05:42;9.10;;;6.90;;
22034;SDS011;11181;51.002;4.356;2023-07-20T06:08:11;8.07;;;5.53;;
22034;SDS011;11181;51.002;4.356;2023-07-20T06:10:37;9.73;;;6.10;;
22034;SDS011;11181;51.002;4.356;2023-07-20T06:13:04;9.33;;;6.13;;
22034;SDS011;11181;51.002;4.356;2023-07-20T06:15:32;9.53;;;6.17;;
22034;SDS011;11181;51.002;4.356;2023-07-20T06:18:00;8.03;;;6.60;;
22034;SDS011;11181;51.002;4.356;2023-07-20T06:20:28;9.17;;;5.93;;
22034;SDS011;11181;51.002;4.356;2023-07-20T06:22:56;7.37;;;5.10;;
22034;SDS011;11181;51.002;4.356;2023-07-20T06:25:24;8.97;;;5.97;;
22034;SDS011;11181;51.002;4.356;2023-07-20T06:27:51;5.43;;;4.43;;
22034;SDS011;11181;51.002;4.356;2023-07-20T06:30:18;7.87;;;5.57;;
22034;SDS011;11181;51.002;4.356;2023-07-20T06:32:45;5.37;;;4.00;;
22034;SDS011;11181;51.002;4.356;2023-07-20T06:35:12;6.87;;;4.67;;
22034;SDS011;11181;51.002;4.356;2023-07-20T06:37:39;6.03;;;4.20;;
22034;SDS011;11181;51.002;4.356;2023-07-20T06:40:06;4.23;;;2.90;;
22034;SDS011;11181;51.002;4.356;2023-07-20T06:42:36;4.67;;;2.97;;
22034;SDS011;11181;51.002;4.356;2023-07-20T06:45:03;5.27;;;3.23;;
22034;SDS011;11181;51.002;4.356;2023-07-20T06:47:31;3.90;;;3.50;;
22034;SDS011;11181;51.002;4.356;2023-07-20T06:49:57;5.37;;;3.30;;
22034;SDS011;11181;51.002;4.356;2023-07-20T06:52:24;4.37;;;3.07;;
22034;SDS011;11181;51.002;4.356;2023-07-20T06:54:51;3.07;;;2.80;;
22034;SDS011;11181;51.002;4.356;2023-07-20T06:57:18;3.30;;;2.83;;
22034;SDS011;11181;51.002;4.356;2023-07-20T06:59:46;4.67;;;3.30;;
22034;SDS011;11181;51.002;4.356;2023-07-20T07:02:13;2.83;;;2.47;;
22034;SDS011;11181;51.002;4.356;2023-07-20T07:04:40;3.27;;;2.83;;
22034;SDS011;11181;51.002;4.356;2023-07-20T07:07:07;6.73;;;3.40;;
22034;SDS011;11181;51.002;4.356;2023-07-20T07:09:35;3.43;;;2.83;;
22034;SDS011;11181;51.002;4.356;2023-07-20T07:12:02;3.47;;;2.40;;
22034;SDS011;11181;51.002;4.356;2023-07-20T07:14:29;2.83;;;2.63;;
22034;SDS011;11181;51.002;4.356;2023-07-20T07:16:57;4.90;;;3.00;;
22034;SDS011;11181;51.002;4.356;2023-07-20T07:19:24;5.13;;;2.53;;
22034;SDS011;11181;51.002;4.356;2023-07-20T07:21:51;4.17;;;2.50;;
22034;SDS011;11181;51.002;4.356;2023-07-20T07:24:18;2.63;;;2.10;;
22034;SDS011;11181;51.002;4.356;2023-07-20T07:26:44;3.73;;;2.30;;
22034;SDS011;11181;51.002;4.356;2023-07-20T07:29:11;4.47;;;2.57;;
22034;SDS011;11181;51.002;4.356;2023-07-20T07:31:38;2.80;;;2.47;;
22034;SDS011;11181;51.002;4.356;2023-07-20T07:34:06;3.50;;;2.70;;
22034;SDS011;11181;51.002;4.356;2023-07-20T07:36:33;2.43;;;1.93;;
22034;SDS011;11181;51.002;4.356;2023-07-20T07:39:01;3.83;;;2.23;;
22034;SDS011;11181;51.002;4.356;2023-07-20T07:41:28;2.40;;;2.20;;
22034;SDS011;11181;51.002;4.356;2023-07-20T07:43:55;5.30;;;2.70;;
22034;SDS011;11181;51.002;4.356;2023-07-20T07:46:22;2.57;;;2.37;;
22034;SDS011;11181;51.002;4.356;2023-07-20T07:48:49;3.50;;;2.10;;
22034;SDS011;11181;51.002;4.356;2023-07-20T07:51:17;4.20;;;2.10;;
22034;SDS011;11181;51.002;4.356;2023-07-20T07:53:45;2.43;;;1.80;;
22034;SDS011;11181;51.002;4.356;2023-07-20T07:56:12;1.77;;;1.30;;
22034;SDS011;11181;51.002;4.356;2023-07-20T07:58:39;3.00;;;1.77;;
22034;SDS011;11181;51.002;4.356;2023-07-20T08:01:05;3.13;;;1.60;;
22034;SDS011;11181;51.002;4.356;2023-07-20T08:03:32;1.97;;;1.80;;
22034;SDS011;11181;51.002;4.356;2023-07-20T08:06:00;1.70;;;1.60;;
22034;SDS011;11181;51.002;4.356;2023-07-20T08:08:30;2.07;;;1.67;;
22034;SDS011;11181;51.002;4.356;2023-07-20T08:10:57;3.53;;;1.30;;
22034;SDS011;11181;51.002;4.356;2023-07-20T08:13:25;2.55;;;1.55;;
22034;SDS011;11181;51.002;4.356;2023-07-20T08:15:52;4.03;;;1.77;;
22034;SDS011;11181;51.002;4.356;2023-07-20T08:18:19;1.93;;;1.37;;
22034;SDS011;11181;51.002;4.356;2023-07-20T08:20:46;6.87;;;1.50;;
22034;SDS011;11181;51.002;4.356;2023-07-20T08:23:14;1.60;;;0.90;;
22034;SDS011;11181;51.002;4.356;2023-07-20T08:25:42;2.10;;;1.10;;
22034;SDS011;11181;51.002;4.356;2023-07-20T08:28:10;1.17;;;1.07;;
22034;SDS011;11181;51.002;4.356;2023-07-20T08:30:41;0.93;;;0.70;;
22034;SDS011;11181;51.002;4.356;2023-07-20T08:33:09;1.08;;;0.70;;
22034;SDS011;11181;51.002;4.356;2023-07-20T08:35:36;1.30;;;0.90;;
22034;SDS011;11181;51.002;4.356;2023-07-20T08:38:03;1.65;;;1.00;;
22034;SDS011;11181;51.002;4.356;2023-07-20T08:40:30;1.05;;;0.88;;
22034;SDS011;11181;51.002;4.356;2023-07-20T08:42:59;1.85;;;1.40;;
22034;SDS011;11181;51.002;4.356;2023-07-20T08:45:27;2.03;;;1.83;;
22034;SDS011;11181;51.002;4.356;2023-07-20T08:47:55;2.35;;;1.30;;
22034;SDS011;11181;51.002;4.356;2023-07-20T08:50:25;1.40;;;1.30;;
22034;SDS011;11181;51.002;4.356;2023-07-20T08:52:54;1.75;;;1.27;;
22034;SDS011;11181;51.002;4.356;2023-07-20T08:55:23;1.42;;;1.02;;
22034;SDS011;11181;51.002;4.356;2023-07-20T08:57:51;2.20;;;1.60;;
22034;SDS011;11181;51.002;4.356;2023-07-20T09:00:22;1.48;;;1.38;;
22034;SDS011;11181;51.002;4.356;2023-07-20T09:02:50;1.30;;;1.00;;
22034;SDS011;11181;51.002;4.356;2023-07-20T09:05:18;2.17;;;1.25;;
22034;SDS011;11181;51.002;4.356;2023-07-20T09:07:46;1.10;;;0.95;;
22034;SDS011;11181;51.002;4.356;2023-07-20T09:10:13;1.20;;;0.98;;
22034;SDS011;11181;51.002;4.356;2023-07-20T09:12:40;1.63;;;0.90;;
22034;SDS011;11181;51.002;4.356;2023-07-20T09:15:08;1.40;;;0.90;;
22034;SDS011;11181;51.002;4.356;2023-07-20T09:17:38;1.35;;;0.90;;
22034;SDS011;11181;51.002;4.356;2023-07-20T09:20:06;2.92;;;1.05;;
22034;SDS011;11181;51.002;4.356;2023-07-20T09:22:35;1.20;;;1.08;;
22034;SDS011;11181;51.002;4.356;2023-07-20T09:25:05;2.03;;;1.00;;
22034;SDS011;11181;51.002;4.356;2023-07-20T09:27:37;1.05;;;0.95;;
22034;SDS011;11181;51.002;4.356;2023-07-20T09:30:05;1.60;;;0.98;;
22034;SDS011;11181;51.002;4.356;2023-07-20T09:32:39;3.45;;;1.33;;
22034;SDS011;11181;51.002;4.356;2023-07-20T09:35:12;1.55;;;0.90;;
22034;SDS011;11181;51.002;4.356;2023-07-20T09:37:41;1.52;;;1.10;;
22034;SDS011;11181;51.002;4.356;2023-07-20T09:40:14;1.02;;;1.00;;
22034;SDS011;11181;51.002;4.356;2023-07-20T09:42:42;2.15;;;0.80;;
22034;SDS011;11181;51.002;4.356;2023-07-20T09:45:09;5.18;;;1.45;;
22034;SDS011;11181;51.002;4.356;2023-07-20T09:47:37;2.17;;;0.85;;
22034;SDS011;11181;51.002;4.356;2023-07-20T09:50:06;1.33;;;0.80;;
22034;SDS011;11181;51.002;4.356;2023-07-20T09:52:37;2.03;;;0.70;;
22034;SDS011;11181;51.002;4.356;2023-07-20T09:55:05;1.50;;;1.13;;
22034;SDS011;11181;51.002;4.356;2023-07-20T09:57:33;1.95;;;0.90;;
22034;SDS011;11181;51.002;4.356;2023-07-20T10:00:02;1.10;;;0.75;;
22034;SDS011;11181;51.002;4.356;2023-07-20T10:02:33;0.73;;;0.73;;
22034;SDS011;11181;51.002;4.356;2023-07-20T10:05:04;1.45;;;0.90;;
22034;SDS011;11181;51.002;4.356;2023-07-20T10:07:33;0.80;;;0.80;;
22034;SDS011;11181;51.002;4.356;2023-07-20T10:10:06;1.13;;;1.02;;
22034;SDS011;11181;51.002;4.356;2023-07-20T10:12:36;1.50;;;1.08;;
22034;SDS011;11181;51.002;4.356;2023-07-20T10:15:08;3.42;;;0.90;;
22034;SDS011;11181;51.002;4.356;2023-07-20T10:17:39;1.00;;;0.82;;
22034;SDS011;11181;51.002;4.356;2023-07-20T10:20:16;4.03;;;1.25;;
22034;SDS011;11181;51.002;4.356;2023-07-20T10:22:46;1.55;;;0.90;;
22034;SDS011;11181;51.002;4.356;2023-07-20T10:25:15;2.35;;;0.80;;
22034;SDS011;11181;51.002;4.356;2023-07-20T10:27:44;1.55;;;0.75;;
22034;SDS011;11181;51.002;4.356;2023-07-20T10:30:11;1.23;;;0.85;;
22034;SDS011;11181;51.002;4.356;2023-07-20T10:32:39;1.10;;;0.65;;
22034;SDS011;11181;51.002;4.356;2023-07-20T10:35:11;0.68;;;0.68;;
22034;SDS011;11181;51.002;4.356;2023-07-20T10:37:47;1.25;;;0.80;;
22034;SDS011;11181;51.002;4.356;2023-07-20T10:40:25;1.55;;;1.08;;
22034;SDS011;11181;51.002;4.356;2023-07-20T10:43:00;4.18;;;0.80;;
22034;SDS011;11181;51.002;4.356;2023-07-20T10:48:17;1.10;;;1.00;;
22034;SDS011;11181;51.002;4.356;2023-07-20T10:50:45;1.27;;;0.77;;
22034;SDS011;11181;51.002;4.356;2023-07-20T10:53:29;1.83;;;0.80;;
22034;SDS011;11181;51.002;4.356;2023-07-20T10:56:05;1.85;;;0.80;;
22034;SDS011;11181;51.002;4.356;2023-07-20T10:58:33;0.60;;;0.60;;
22034;SDS011;11181;51.002;4.356;2023-07-20T11:01:00;1.10;;;1.00;;
22034;SDS011;11181;51.002;4.356;2023-07-20T11:03:29;1.15;;;0.50;;
22034;SDS011;11181;51.002;4.356;2023-07-20T11:05:57;1.10;;;1.00;;
22034;SDS011;11181;51.002;4.356;2023-07-20T11:08:41;1.17;;;1.08;;
22034;SDS011;11181;51.002;4.356;2023-07-20T11:11:21;1.58;;;0.70;;
22034;SDS011;11181;51.002;4.356;2023-07-20T11:13:55;1.13;;;1.02;;
22034;SDS011;11181;51.002;4.356;2023-07-20T11:16:39;1.85;;;1.00;;
22034;SDS011;11181;51.002;4.356;2023-07-20T11:19:16;1.50;;;1.17;;
22034;SDS011;11181;51.002;4.356;2023-07-20T11:21:44;2.03;;;0.77;;
22034;SDS011;11181;51.002;4.356;2023-07-20T11:24:13;1.20;;;1.10;;
22034;SDS011;11181;51.002;4.356;2023-07-20T11:26:41;0.80;;;0.80;;
22034;SDS011;11181;51.002;4.356;2023-07-20T11:29:12;1.33;;;1.13;;
22034;SDS011;11181;51.002;4.356;2023-07-20T11:31:40;0.98;;;0.80;;
22034;SDS011;11181;51.002;4.356;2023-07-20T11:34:10;2.22;;;1.00;;
22034;SDS011;11181;51.002;4.356;2023-07-20T11:36:38;1.80;;;1.00;;
22034;SDS011;11181;51.002;4.356;2023-07-20T11:39:07;1.10;;;1.00;;
22034;SDS011;11181;51.002;4.356;2023-07-20T11:41:36;1.38;;;1.27;;
22034;SDS011;11181;51.002;4.356;2023-07-20T11:44:05;1.05;;;1.00;;
22034;SDS011;11181;51.002;4.356;2023-07-20T11:46:32;1.58;;;1.15;;
22034;SDS011;11181;51.002;4.356;2023-07-20T11:49:00;2.65;;;1.30;;
22034;SDS011;11181;51.002;4.356;2023-07-20T11:51:27;1.30;;;1.00;;
22034;SDS011;11181;51.002;4.356;2023-07-20T11:53:55;1.60;;;1.20;;
22034;SDS011;11181;51.002;4.356;2023-07-20T11:56:23;1.92;;;1.05;;
22034;SDS011;11181;51.002;4.356;2023-07-20T11:58:53;1.13;;;1.02;;
22034;SDS011;11181;51.002;4.356;2023-07-20T12:01:22;1.52;;;1.42;;
22034;SDS011;11181;51.002;4.356;2023-07-20T12:03:49;1.17;;;1.08;;
22034;SDS011;11181;51.002;4.356;2023-07-20T12:06:16;1.27;;;1.17;;
22034;SDS011;11181;51.002;4.356;2023-07-20T12:08:43;1.92;;;0.82;;
22034;SDS011;11181;51.002;4.356;2023-07-20T12:11:10;0.95;;;0.93;;
22034;SDS011;11181;51.002;4.356;2023-07-20T12:13:38;0.90;;;0.90;;
22034;SDS011;11181;51.002;4.356;2023-07-20T12:16:10;2.92;;;1.10;;
22034;SDS011;11181;51.002;4.356;2023-07-20T12:18:39;1.77;;;1.10;;
22034;SDS011;11181;51.002;4.356;2023-07-20T12:21:06;1.70;;;1.10;;
22034;SDS011;11181;51.002;4.356;2023-07-20T12:23:37;1.20;;;1.00;;
22034;SDS011;11181;51.002;4.356;2023-07-20T12:26:06;1.35;;;1.00;;
22034;SDS011;11181;51.002;4.356;2023-07-20T12:28:35;2.22;;;1.10;;
22034;SDS011;11181;51.002;4.356;2023-07-20T12:31:04;1.10;;;0.95;;
22034;SDS011;11181;51.002;4.356;2023-07-20T12:33:33;1.75;;;1.00;;
22034;SDS011;11181;51.002;4.356;2023-07-20T12:36:00;1.58;;;1.17;;
22034;SDS011;11181;51.002;4.356;2023-07-20T12:38:27;1.30;;;1.20;;
22034;SDS011;11181;51.002;4.356;2023-07-20T12:40:55;2.45;;;1.10;;
22034;SDS011;11181;51.002;4.356;2023-07-20T12:43:23;1.20;;;1.10;;
22034;SDS011;11181;51.002;4.356;2023-07-20T12:45:50;1.05;;;0.80;;
22034;SDS011;11181;51.002;4.356;2023-07-20T12:48:17;1.23;;;1.00;;
22034;SDS011;11181;51.002;4.356;2023-07-20T12:50:45;0.98;;;0.80;;
22034;SDS011;11181;51.002;4.356;2023-07-20T12:53:12;1.50;;;0.93;;
22034;SDS011;11181;51.002;4.356;2023-07-20T12:55:40;1.17;;;0.80;;
22034;SDS011;11181;51.002;4.356;2023-07-20T12:58:07;1.50;;;1.10;;
22034;SDS011;11181;51.002;4.356;2023-07-20T13:00:34;0.95;;;0.95;;
22034;SDS011;11181;51.002;4.356;2023-07-20T13:03:01;1.45;;;1.23;;
22034;SDS011;11181;51.002;4.356;2023-07-20T13:05:30;3.15;;;1.55;;
22034;SDS011;11181;51.002;4.356;2023-07-20T13:07:59;1.67;;;1.58;;
22034;SDS011;11181;51.002;4.356;2023-07-20T13:10:25;3.50;;;1.92;;
22034;SDS011;11181;51.002;4.356;2023-07-20T13:12:52;2.40;;;1.80;;
22034;SDS011;11181;51.002;4.356;2023-07-20T13:15:19;2.53;;;1.55;;
22034;SDS011;11181;51.002;4.356;2023-07-20T13:17:46;2.70;;;1.20;;
22034;SDS011;11181;51.002;4.356;2023-07-20T13:20:13;1.80;;;1.70;;
22034;SDS011;11181;51.002;4.356;2023-07-20T13:22:40;3.78;;;1.80;;
22034;SDS011;11181;51.002;4.356;2023-07-20T13:25:08;1.52;;;1.42;;
22034;SDS011;11181;51.002;4.356;2023-07-20T13:27:36;3.55;;;1.90;;
22034;SDS011;11181;51.002;4.356;2023-07-20T13:30:03;1.90;;;1.60;;
22034;SDS011;11181;51.002;4.356;2023-07-20T13:32:31;1.92;;;1.65;;
22034;SDS011;11181;51.002;4.356;2023-07-20T13:34:59;3.03;;;1.75;;
22034;SDS011;11181;51.002;4.356;2023-07-20T13:37:26;4.32;;;1.88;;
22034;SDS011;11181;51.002;4.356;2023-07-20T13:39:53;2.83;;;1.85;;
22034;SDS011;11181;51.002;4.356;2023-07-20T13:42:21;2.75;;;2.25;;
22034;SDS011;11181;51.002;4.356;2023-07-20T13:44:48;3.08;;;2.45;;
22034;SDS011;11181;51.002;4.356;2023-07-20T13:47:15;2.20;;;2.05;;
22034;SDS011;11181;51.002;4.356;2023-07-20T13:49:43;2.00;;;1.90;;
22034;SDS011;11181;51.002;4.356;2023-07-20T13:52:10;2.25;;;2.15;;
22034;SDS011;11181;51.002;4.356;2023-07-20T13:54:37;3.75;;;2.22;;
22034;SDS011;11181;51.002;4.356;2023-07-20T13:57:03;1.70;;;1.50;;
22034;SDS011;11181;51.002;4.356;2023-07-20T13:59:32;2.40;;;2.00;;
22034;SDS011;11181;51.002;4.356;2023-07-20T14:01:59;3.83;;;2.33;;
22034;SDS011;11181;51.002;4.356;2023-07-20T14:04:26;1.92;;;1.83;;
22034;SDS011;11181;51.002;4.356;2023-07-20T14:06:54;2.33;;;2.00;;
22034;SDS011;11181;51.002;4.356;2023-07-20T14:09:21;3.17;;;2.20;;
22034;SDS011;11181;51.002;4.356;2023-07-20T14:11:47;2.95;;;1.88;;
22034;SDS011;11181;51.002;4.356;2023-07-20T14:14:14;2.15;;;1.65;;
22034;SDS011;11181;51.002;4.356;2023-07-20T14:16:43;3.10;;;1.65;;
22034;SDS011;11181;51.002;4.356;2023-07-20T14:19:09;2.28;;;2.08;;
22034;SDS011;11181;51.002;4.356;2023-07-20T14:21:37;2.40;;;2.20;;
22034;SDS011;11181;51.002;4.356;2023-07-20T14:24:04;3.70;;;2.10;;
22034;SDS011;11181;51.002;4.356;2023-07-20T14:26:31;2.60;;;1.83;;
22034;SDS011;11181;51.002;4.356;2023-07-20T14:28:58;2.88;;;1.88;;
22034;SDS011;11181;51.002;4.356;2023-07-20T14:31:26;2.17;;;1.42;;
22034;SDS011;11181;51.002;4.356;2023-07-20T14:33:54;3.08;;;2.03;;
22034;SDS011;11181;51.002;4.356;2023-07-20T14:36:21;1.25;;;1.15;;
22034;SDS011;11181;51.002;4.356;2023-07-20T14:38:48;2.38;;;1.38;;
22034;SDS011;11181;51.002;4.356;2023-07-20T14:41:15;1.92;;;1.40;;
22034;SDS011;11181;51.002;4.356;2023-07-20T14:43:42;1.88;;;1.63;;
22034;SDS011;11181;51.002;4.356;2023-07-20T14:46:09;1.77;;;1.05;;
22034;SDS011;11181;51.002;4.356;2023-07-20T14:48:36;1.42;;;1.33;;
22034;SDS011;11181;51.002;4.356;2023-07-20T14:51:04;1.75;;;1.13;;
22034;SDS011;11181;51.002;4.356;2023-07-20T14:53:31;1.40;;;1.30;;